sensor_id;sensor_type;location;lat;lon;timestamp;pressure;altitude;pressure_sealevel;temperature;humidity
19596;BME280;9945;46.010;8.946;2022-12-18T00:01:02;98245.66;;;7.82;68.39
19596;BME280;9945;46.010;8.946;2022-12-18T00:03:32;98248.84;;;7.85;67.73
19596;BME280;9945;46.010;8.946;2022-12-18T00:05:59;98253.47;;;7.82;67.38
19596;BME280;9945;46.010;8.946;2022-12-18T00:08:26;98257.00;;;7.81;69.13
19596;BME280;9945;46.010;8.946;2022-12-18T00:10:53;98259.50;;;7.82;69.50
19596;BME280;9945;46.010;8.946;2022-12-18T00:13:20;98260.56;;;7.80;69.26
19596;BME280;9945;46.010;8.946;2022-12-18T00:15:49;98278.06;;;7.78;69.69
19596;BME280;9945;46.010;8.946;2022-12-18T00:18:15;98277.31;;;7.76;69.85
19596;BME280;9945;46.010;8.946;2022-12-18T00:20:42;98288.59;;;7.76;70.01
19596;BME280;9945;46.010;8.946;2022-12-18T00:23:09;98285.47;;;7.71;71.21
19596;BME280;9945;46.010;8.946;2022-12-18T00:25:39;98282.44;;;7.77;70.23
19596;BME280;9945;46.010;8.946;2022-12-18T00:28:06;98287.22;;;7.83;70.03
19596;BME280;9945;46.010;8.946;2022-12-18T00:30:33;98287.22;;;7.83;70.78
19596;BME280;9945;46.010;8.946;2022-12-18T00:33:01;98282.53;;;7.76;69.49
19596;BME280;9945;46.010;8.946;2022-12-18T00:35:28;98293.06;;;7.74;69.51
19596;BME280;9945;46.010;8.946;2022-12-18T00:37:54;98291.09;;;7.78;68.08
19596;BME280;9945;46.010;8.946;2022-12-18T00:40:21;98291.41;;;7.73;69.70
19596;BME280;9945;46.010;8.946;2022-12-18T00:42:48;98291.59;;;7.70;70.01
19596;BME280;9945;46.010;8.946;2022-12-18T00:45:23;98301.63;;;7.64;69.52
19596;BME280;9945;46.010;8.946;2022-12-18T00:47:50;98304.19;;;7.51;69.09
19596;BME280;9945;46.010;8.946;2022-12-18T00:50:19;98308.59;;;7.63;68.66
19596;BME280;9945;46.010;8.946;2022-12-18T00:52:45;98304.75;;;7.69;69.71
19596;BME280;9945;46.010;8.946;2022-12-18T00:55:13;98316.09;;;7.68;69.23
19596;BME280;9945;46.010;8.946;2022-12-18T00:57:40;98306.09;;;7.62;67.64
19596;BME280;9945;46.010;8.946;2022-12-18T01:00:09;98313.50;;;7.55;68.35
19596;BME280;9945;46.010;8.946;2022-12-18T01:02:37;98314.22;;;7.57;66.81
19596;BME280;9945;46.010;8.946;2022-12-18T01:05:05;98315.88;;;7.58;67.02
19596;BME280;9945;46.010;8.946;2022-12-18T01:07:33;98311.41;;;7.47;68.80
19596;BME280;9945;46.010;8.946;2022-12-18T01:10:00;98312.75;;;7.53;67.72
19596;BME280;9945;46.010;8.946;2022-12-18T01:12:27;98324.75;;;7.55;67.45
19596;BME280;9945;46.010;8.946;2022-12-18T01:14:54;98325.47;;;7.57;68.37
19596;BME280;9945;46.010;8.946;2022-12-18T01:17:21;98324.13;;;7.65;67.01
19596;BME280;9945;46.010;8.946;2022-12-18T01:19:48;98328.50;;;7.64;66.59
19596;BME280;9945;46.010;8.946;2022-12-18T01:22:15;98330.56;;;7.59;65.79
19596;BME280;9945;46.010;8.946;2022-12-18T01:24:43;98331.84;;;7.66;66.39
19596;BME280;9945;46.010;8.946;2022-12-18T01:27:10;98338.63;;;7.69;64.69
19596;BME280;9945;46.010;8.946;2022-12-18T01:29:37;98343.81;;;7.56;66.23
19596;BME280;9945;46.010;8.946;2022-12-18T01:32:04;98350.91;;;7.54;66.35
19596;BME280;9945;46.010;8.946;2022-12-18T01:34:31;98345.78;;;7.52;66.00
19596;BME280;9945;46.010;8.946;2022-12-18T01:37:02;98357.00;;;7.40;66.17
19596;BME280;9945;46.010;8.946;2022-12-18T01:39:29;98357.00;;;7.40;65.65
19596;BME280;9945;46.010;8.946;2022-12-18T01:41:58;98362.09;;;7.42;67.08
19596;BME280;9945;46.010;8.946;2022-12-18T01:45:00;98359.72;;;7.39;66.66
19596;BME280;9945;46.010;8.946;2022-12-18T01:47:32;98363.16;;;7.39;65.81
19596;BME280;9945;46.010;8.946;2022-12-18T01:50:03;98365.56;;;7.42;65.07
19596;BME280;9945;46.010;8.946;2022-12-18T01:52:32;98362.00;;;7.43;65.30
19596;BME280;9945;46.010;8.946;2022-12-18T01:55:00;98370.38;;;7.48;65.41
19596;BME280;9945;46.010;8.946;2022-12-18T01:57:30;98367.88;;;7.47;65.72
19596;BME280;9945;46.010;8.946;2022-12-18T02:00:00;98365.97;;;7.49;64.11
19596;BME280;9945;46.010;8.946;2022-12-18T02:02:29;98370.56;;;7.45;63.53
19596;BME280;9945;46.010;8.946;2022-12-18T02:04:59;98364.72;;;7.42;63.88
19596;BME280;9945;46.010;8.946;2022-12-18T02:07:33;98355.72;;;7.33;64.81
19596;BME280;9945;46.010;8.946;2022-12-18T02:10:07;98364.38;;;7.34;64.48
19596;BME280;9945;46.010;8.946;2022-12-18T02:12:44;98360.00;;;7.34;65.22
19596;BME280;9945;46.010;8.946;2022-12-18T02:15:17;98353.03;;;7.35;64.61
19596;BME280;9945;46.010;8.946;2022-12-18T02:17:50;98358.66;;;7.29;65.55
19596;BME280;9945;46.010;8.946;2022-12-18T02:20:23;98363.63;;;7.32;66.89
19596;BME280;9945;46.010;8.946;2022-12-18T02:23:04;98366.16;;;7.33;65.73
19596;BME280;9945;46.010;8.946;2022-12-18T02:28:16;98371.56;;;7.30;65.68
19596;BME280;9945;46.010;8.946;2022-12-18T02:30:47;98366.53;;;7.14;65.48
19596;BME280;9945;46.010;8.946;2022-12-18T02:33:15;98367.97;;;7.18;63.84
19596;BME280;9945;46.010;8.946;2022-12-18T02:35:45;98382.75;;;7.18;63.52
19596;BME280;9945;46.010;8.946;2022-12-18T02:38:12;98380.25;;;7.16;62.62
19596;BME280;9945;46.010;8.946;2022-12-18T02:40:40;98375.97;;;7.15;62.75
19596;BME280;9945;46.010;8.946;2022-12-18T02:43:10;98382.59;;;7.07;63.48
19596;BME280;9945;46.010;8.946;2022-12-18T02:45:48;98384.75;;;7.00;63.78
19596;BME280;9945;46.010;8.946;2022-12-18T02:48:24;98390.38;;;6.94;64.18
19596;BME280;9945;46.010;8.946;2022-12-18T02:50:55;98383.66;;;6.90;64.78
19596;BME280;9945;46.010;8.946;2022-12-18T02:53:32;98388.38;;;6.98;64.18
19596;BME280;9945;46.010;8.946;2022-12-18T02:56:05;98399.75;;;6.97;63.62
19596;BME280;9945;46.010;8.946;2022-12-18T02:58:39;98402.38;;;6.97;64.13
19596;BME280;9945;46.010;8.946;2022-12-18T03:01:15;98395.19;;;7.00;63.49
19596;BME280;9945;46.010;8.946;2022-12-18T03:03:47;98400.59;;;6.97;64.02
19596;BME280;9945;46.010;8.946;2022-12-18T03:06:22;98406.91;;;6.93;63.48
19596;BME280;9945;46.010;8.946;2022-12-18T03:08:53;98411.28;;;6.93;62.03
19596;BME280;9945;46.010;8.946;2022-12-18T03:11:25;98414.53;;;6.96;62.19
19596;BME280;9945;46.010;8.946;2022-12-18T03:14:09;98414.16;;;7.02;60.76
19596;BME280;9945;46.010;8.946;2022-12-18T03:16:40;98408.84;;;7.04;59.91
19596;BME280;9945;46.010;8.946;2022-12-18T03:19:11;98411.25;;;7.07;61.15
19596;BME280;9945;46.010;8.946;2022-12-18T03:21:43;98418.78;;;7.11;60.73
19596;BME280;9945;46.010;8.946;2022-12-18T03:24:11;98414.59;;;7.09;61.35
19596;BME280;9945;46.010;8.946;2022-12-18T03:26:41;98407.81;;;7.06;61.86
19596;BME280;9945;46.010;8.946;2022-12-18T03:29:14;98406.44;;;7.01;62.30
19596;BME280;9945;46.010;8.946;2022-12-18T03:31:48;98410.63;;;7.03;62.60
19596;BME280;9945;46.010;8.946;2022-12-18T03:34:19;98411.25;;;7.07;62.12
19596;BME280;9945;46.010;8.946;2022-12-18T03:36:48;98417.31;;;6.93;63.87
19596;BME280;9945;46.010;8.946;2022-12-18T03:39:15;98418.53;;;6.88;64.71
19596;BME280;9945;46.010;8.946;2022-12-18T03:41:44;98420.31;;;6.87;65.62
19596;BME280;9945;46.010;8.946;2022-12-18T03:44:15;98420.09;;;6.90;65.98
19596;BME280;9945;46.010;8.946;2022-12-18T03:46:54;98426.16;;;6.91;67.13
19596;BME280;9945;46.010;8.946;2022-12-18T03:49:27;98427.81;;;6.92;67.56
19596;BME280;9945;46.010;8.946;2022-12-18T03:52:03;98429.88;;;6.87;66.70
19596;BME280;9945;46.010;8.946;2022-12-18T03:54:33;98423.28;;;6.81;65.79
19596;BME280;9945;46.010;8.946;2022-12-18T03:57:06;98433.50;;;6.84;63.90
19596;BME280;9945;46.010;8.946;2022-12-18T03:59:35;98434.34;;;6.84;64.46
19596;BME280;9945;46.010;8.946;2022-12-18T04:02:05;98440.31;;;6.87;63.19
19596;BME280;9945;46.010;8.946;2022-12-18T04:04:34;98440.22;;;6.88;63.06
19596;BME280;9945;46.010;8.946;2022-12-18T04:07:02;98447.91;;;6.90;61.34
19596;BME280;9945;46.010;8.946;2022-12-18T04:09:30;98444.19;;;6.94;60.84
19596;BME280;9945;46.010;8.946;2022-12-18T04:11:58;98442.13;;;6.99;60.77
19596;BME280;9945;46.010;8.946;2022-12-18T04:14:25;98441.84;;;7.03;59.62
19596;BME280;9945;46.010;8.946;2022-12-18T04:16:52;98448.81;;;7.03;59.85
19596;BME280;9945;46.010;8.946;2022-12-18T04:19:20;98450.50;;;6.90;59.85
19596;BME280;9945;46.010;8.946;2022-12-18T04:21:47;98457.38;;;6.91;61.08
19596;BME280;9945;46.010;8.946;2022-12-18T04:24:14;98466.97;;;6.90;61.30
19596;BME280;9945;46.010;8.946;2022-12-18T04:26:41;98467.16;;;6.87;61.65
19596;BME280;9945;46.010;8.946;2022-12-18T04:29:08;98475.16;;;6.84;62.23
19596;BME280;9945;46.010;8.946;2022-12-18T04:31:34;98482.69;;;6.89;62.53
19596;BME280;9945;46.010;8.946;2022-12-18T04:34:01;98481.72;;;6.90;62.45
19596;BME280;9945;46.010;8.946;2022-12-18T04:36:30;98489.94;;;6.83;61.46
19596;BME280;9945;46.010;8.946;2022-12-18T04:38:57;98487.22;;;6.85;61.32
19596;BME280;9945;46.010;8.946;2022-12-18T04:41:24;98476.91;;;6.83;60.43
19596;BME280;9945;46.010;8.946;2022-12-18T04:43:51;98490.00;;;6.82;60.58
19596;BME280;9945;46.010;8.946;2022-12-18T04:46:18;98491.50;;;6.86;60.79
19596;BME280;9945;46.010;8.946;2022-12-18T04:48:45;98493.09;;;6.89;60.95
19596;BME280;9945;46.010;8.946;2022-12-18T04:51:12;98503.94;;;6.81;61.05
19596;BME280;9945;46.010;8.946;2022-12-18T04:53:41;98506.84;;;6.91;60.29
19596;BME280;9945;46.010;8.946;2022-12-18T04:56:10;98505.91;;;6.92;60.14
19596;BME280;9945;46.010;8.946;2022-12-18T04:58:39;98515.31;;;6.94;59.79
19596;BME280;9945;46.010;8.946;2022-12-18T05:01:07;98514.19;;;6.84;59.06
19596;BME280;9945;46.010;8.946;2022-12-18T05:03:34;98515.56;;;6.90;58.61
19596;BME280;9945;46.010;8.946;2022-12-18T05:06:02;98521.44;;;6.93;58.78
19596;BME280;9945;46.010;8.946;2022-12-18T05:08:29;98516.16;;;6.95;58.02
19596;BME280;9945;46.010;8.946;2022-12-18T05:11:01;98519.50;;;6.97;58.10
19596;BME280;9945;46.010;8.946;2022-12-18T05:13:29;98523.88;;;6.96;57.07
19596;BME280;9945;46.010;8.946;2022-12-18T05:15:56;98525.81;;;6.93;57.92
19596;BME280;9945;46.010;8.946;2022-12-18T05:18:23;98521.34;;;6.95;57.25
19596;BME280;9945;46.010;8.946;2022-12-18T05:20:50;98531.03;;;6.93;57.46
19596;BME280;9945;46.010;8.946;2022-12-18T05:23:18;98526.81;;;6.76;58.09
19596;BME280;9945;46.010;8.946;2022-12-18T05:25:49;98528.75;;;6.72;57.74
19596;BME280;9945;46.010;8.946;2022-12-18T05:28:18;98535.19;;;6.81;57.79
19596;BME280;9945;46.010;8.946;2022-12-18T05:30:48;98532.69;;;6.79;58.53
19596;BME280;9945;46.010;8.946;2022-12-18T05:33:16;98542.72;;;6.86;58.28
19596;BME280;9945;46.010;8.946;2022-12-18T05:35:43;98541.91;;;6.85;58.56
19596;BME280;9945;46.010;8.946;2022-12-18T05:38:10;98544.59;;;6.83;58.33
19596;BME280;9945;46.010;8.946;2022-12-18T05:40:36;98551.84;;;6.93;57.79
19596;BME280;9945;46.010;8.946;2022-12-18T05:43:04;98552.38;;;6.98;57.86
19596;BME280;9945;46.010;8.946;2022-12-18T05:45:33;98551.00;;;6.92;57.40
19596;BME280;9945;46.010;8.946;2022-12-18T05:48:03;98556.88;;;6.96;58.21
19596;BME280;9945;46.010;8.946;2022-12-18T05:50:30;98554.34;;;6.94;59.01
19596;BME280;9945;46.010;8.946;2022-12-18T05:52:57;98550.91;;;6.94;58.36
19596;BME280;9945;46.010;8.946;2022-12-18T05:55:24;98553.22;;;6.98;58.88
19596;BME280;9945;46.010;8.946;2022-12-18T05:57:51;98557.59;;;6.98;60.51
19596;BME280;9945;46.010;8.946;2022-12-18T06:00:18;98562.81;;;6.98;60.18
19596;BME280;9945;46.010;8.946;2022-12-18T06:02:47;98562.16;;;6.94;61.31
19596;BME280;9945;46.010;8.946;2022-12-18T06:05:14;98564.84;;;6.93;61.56
19596;BME280;9945;46.010;8.946;2022-12-18T06:07:41;98568.84;;;6.98;60.98
19596;BME280;9945;46.010;8.946;2022-12-18T06:10:08;98570.34;;;7.02;61.21
19596;BME280;9945;46.010;8.946;2022-12-18T06:12:35;98569.06;;;7.09;60.66
19596;BME280;9945;46.010;8.946;2022-12-18T06:15:02;98569.88;;;7.10;59.71
19596;BME280;9945;46.010;8.946;2022-12-18T06:17:30;98575.19;;;7.08;61.36
19596;BME280;9945;46.010;8.946;2022-12-18T06:19:58;98583.38;;;7.02;62.13
19596;BME280;9945;46.010;8.946;2022-12-18T06:22:26;98588.50;;;7.04;62.21
19596;BME280;9945;46.010;8.946;2022-12-18T06:24:53;98588.97;;;6.96;63.31
19596;BME280;9945;46.010;8.946;2022-12-18T06:27:20;98590.34;;;7.02;62.86
19596;BME280;9945;46.010;8.946;2022-12-18T06:29:47;98596.47;;;7.01;62.97
19596;BME280;9945;46.010;8.946;2022-12-18T06:32:14;98590.50;;;6.99;62.26
19596;BME280;9945;46.010;8.946;2022-12-18T06:34:41;98596.75;;;6.96;61.50
19596;BME280;9945;46.010;8.946;2022-12-18T06:37:09;98610.78;;;6.94;61.76
19596;BME280;9945;46.010;8.946;2022-12-18T06:39:36;98604.06;;;6.90;62.23
19596;BME280;9945;46.010;8.946;2022-12-18T06:42:03;98603.06;;;6.92;62.32
19596;BME280;9945;46.010;8.946;2022-12-18T06:44:30;98611.53;;;6.96;61.90
19596;BME280;9945;46.010;8.946;2022-12-18T06:46:57;98614.16;;;6.96;61.58
19596;BME280;9945;46.010;8.946;2022-12-18T06:49:24;98612.19;;;6.99;61.07
19596;BME280;9945;46.010;8.946;2022-12-18T06:51:50;98618.22;;;7.00;59.26
19596;BME280;9945;46.010;8.946;2022-12-18T06:54:19;98613.31;;;6.95;57.86
19596;BME280;9945;46.010;8.946;2022-12-18T06:56:46;98622.88;;;6.95;57.45
19596;BME280;9945;46.010;8.946;2022-12-18T06:59:13;98626.41;;;6.94;57.04
19596;BME280;9945;46.010;8.946;2022-12-18T07:01:40;98627.25;;;6.94;57.10
19596;BME280;9945;46.010;8.946;2022-12-18T07:04:07;98622.81;;;6.96;56.39
19596;BME280;9945;46.010;8.946;2022-12-18T07:06:34;98632.47;;;6.94;55.99
19596;BME280;9945;46.010;8.946;2022-12-18T07:09:01;98650.69;;;6.94;57.36
19596;BME280;9945;46.010;8.946;2022-12-18T07:11:29;98644.16;;;6.87;57.78
19596;BME280;9945;46.010;8.946;2022-12-18T07:13:58;98646.84;;;6.86;57.41
19596;BME280;9945;46.010;8.946;2022-12-18T07:16:25;98657.25;;;6.86;56.00
19596;BME280;9945;46.010;8.946;2022-12-18T07:18:55;98669.44;;;6.85;56.46
19596;BME280;9945;46.010;8.946;2022-12-18T07:21:23;98668.69;;;6.83;56.39
19596;BME280;9945;46.010;8.946;2022-12-18T07:23:50;98670.72;;;6.78;57.29
19596;BME280;9945;46.010;8.946;2022-12-18T07:26:18;98672.56;;;6.76;58.66
19596;BME280;9945;46.010;8.946;2022-12-18T07:28:47;98681.91;;;6.64;59.81
19596;BME280;9945;46.010;8.946;2022-12-18T07:31:17;98691.38;;;6.65;60.49
19596;BME280;9945;46.010;8.946;2022-12-18T07:33:45;98689.28;;;6.72;60.50
19596;BME280;9945;46.010;8.946;2022-12-18T07:36:13;98692.47;;;6.77;59.97
19596;BME280;9945;46.010;8.946;2022-12-18T07:38:40;98695.53;;;6.83;59.94
19596;BME280;9945;46.010;8.946;2022-12-18T07:41:09;98696.03;;;6.90;59.20
19596;BME280;9945;46.010;8.946;2022-12-18T07:43:36;98706.44;;;6.90;59.65
19596;BME280;9945;46.010;8.946;2022-12-18T07:46:05;98703.75;;;6.92;59.34
19596;BME280;9945;46.010;8.946;2022-12-18T07:48:33;98709.03;;;6.90;59.55
19596;BME280;9945;46.010;8.946;2022-12-18T07:51:00;98711.47;;;6.93;58.76
19596;BME280;9945;46.010;8.946;2022-12-18T07:53:27;98719.59;;;7.03;58.66
19596;BME280;9945;46.010;8.946;2022-12-18T07:55:55;98725.19;;;7.11;57.19
19596;BME280;9945;46.010;8.946;2022-12-18T07:58:22;98730.97;;;7.16;57.07
19596;BME280;9945;46.010;8.946;2022-12-18T08:00:49;98731.66;;;7.19;56.30
19596;BME280;9945;46.010;8.946;2022-12-18T08:03:19;98741.06;;;7.22;56.29
19596;BME280;9945;46.010;8.946;2022-12-18T08:05:46;98736.97;;;7.32;54.76
19596;BME280;9945;46.010;8.946;2022-12-18T08:08:13;98739.03;;;7.41;55.13
19596;BME280;9945;46.010;8.946;2022-12-18T08:10:40;98747.44;;;7.46;54.54
19596;BME280;9945;46.010;8.946;2022-12-18T08:13:06;98739.41;;;7.49;54.34
19596;BME280;9945;46.010;8.946;2022-12-18T08:15:33;98743.63;;;7.52;54.84
19596;BME280;9945;46.010;8.946;2022-12-18T08:18:00;98746.13;;;7.53;54.52
19596;BME280;9945;46.010;8.946;2022-12-18T08:20:28;98755.19;;;7.62;53.95
19596;BME280;9945;46.010;8.946;2022-12-18T08:22:55;98762.16;;;7.62;53.01
19596;BME280;9945;46.010;8.946;2022-12-18T08:25:23;98757.31;;;7.70;53.49
19596;BME280;9945;46.010;8.946;2022-12-18T08:27:50;98762.44;;;7.71;53.58
19596;BME280;9945;46.010;8.946;2022-12-18T08:30:17;98752.66;;;7.75;52.94
19596;BME280;9945;46.010;8.946;2022-12-18T08:32:44;98759.09;;;7.69;53.03
19596;BME280;9945;46.010;8.946;2022-12-18T08:35:11;98752.94;;;7.84;52.02
19596;BME280;9945;46.010;8.946;2022-12-18T08:37:39;98758.75;;;7.89;52.08
19596;BME280;9945;46.010;8.946;2022-12-18T08:40:08;98765.88;;;8.00;51.25
19596;BME280;9945;46.010;8.946;2022-12-18T08:42:35;98766.00;;;8.13;51.83
19596;BME280;9945;46.010;8.946;2022-12-18T08:45:19;98766.81;;;7.85;51.26
19596;BME280;9945;46.010;8.946;2022-12-18T08:47:46;98767.50;;;7.88;53.14
19596;BME280;9945;46.010;8.946;2022-12-18T08:50:13;98773.63;;;8.16;50.91
19596;BME280;9945;46.010;8.946;2022-12-18T08:52:41;98770.00;;;8.04;51.40
19596;BME280;9945;46.010;8.946;2022-12-18T08:55:09;98765.78;;;8.02;52.64
19596;BME280;9945;46.010;8.946;2022-12-18T08:57:35;98776.78;;;8.21;51.52
19596;BME280;9945;46.010;8.946;2022-12-18T09:00:03;98783.22;;;8.29;50.56
19596;BME280;9945;46.010;8.946;2022-12-18T09:02:30;98783.31;;;8.42;49.83
19596;BME280;9945;46.010;8.946;2022-12-18T09:04:57;98787.28;;;8.62;50.53
19596;BME280;9945;46.010;8.946;2022-12-18T09:07:24;98790.94;;;9.00;48.80
19596;BME280;9945;46.010;8.946;2022-12-18T09:09:52;98795.34;;;9.52;46.88
19596;BME280;9945;46.010;8.946;2022-12-18T09:12:19;98790.25;;;9.24;46.67
19596;BME280;9945;46.010;8.946;2022-12-18T09:14:46;98788.81;;;9.32;47.42
19596;BME280;9945;46.010;8.946;2022-12-18T09:17:13;98785.28;;;9.46;45.65
19596;BME280;9945;46.010;8.946;2022-12-18T09:19:40;98785.84;;;9.76;45.00
19596;BME280;9945;46.010;8.946;2022-12-18T09:22:07;98785.34;;;11.19;42.44
19596;BME280;9945;46.010;8.946;2022-12-18T09:24:35;98785.47;;;11.17;42.67
19596;BME280;9945;46.010;8.946;2022-12-18T09:27:03;98788.03;;;11.06;42.72
19596;BME280;9945;46.010;8.946;2022-12-18T09:29:30;98791.00;;;11.02;42.43
19596;BME280;9945;46.010;8.946;2022-12-18T09:31:57;98799.84;;;11.12;42.81
19596;BME280;9945;46.010;8.946;2022-12-18T09:34:24;98799.44;;;10.81;42.86
19596;BME280;9945;46.010;8.946;2022-12-18T09:36:51;98795.56;;;10.87;43.44
19596;BME280;9945;46.010;8.946;2022-12-18T09:39:18;98800.94;;;13.66;38.53
19596;BME280;9945;46.010;8.946;2022-12-18T09:41:49;98793.91;;;12.80;39.49
19596;BME280;9945;46.010;8.946;2022-12-18T09:44:23;98791.91;;;13.27;39.47
19596;BME280;9945;46.010;8.946;2022-12-18T09:47:05;98790.56;;;17.56;33.00
19596;BME280;9945;46.010;8.946;2022-12-18T09:49:38;98793.94;;;15.17;34.36
19596;BME280;9945;46.010;8.946;2022-12-18T09:52:11;98793.50;;;15.02;34.57
19596;BME280;9945;46.010;8.946;2022-12-18T09:54:40;98791.31;;;14.27;35.42
19596;BME280;9945;46.010;8.946;2022-12-18T09:57:14;98798.47;;;16.11;33.89
19596;BME280;9945;46.010;8.946;2022-12-18T09:59:46;98784.22;;;15.17;33.66
19596;BME280;9945;46.010;8.946;2022-12-18T10:02:18;98782.84;;;18.06;29.56
19596;BME280;9945;46.010;8.946;2022-12-18T10:04:56;98782.91;;;16.45;32.00
19596;BME280;9945;46.010;8.946;2022-12-18T10:07:32;98784.00;;;14.61;34.92
19596;BME280;9945;46.010;8.946;2022-12-18T10:10:07;98780.31;;;13.50;37.82
19596;BME280;9945;46.010;8.946;2022-12-18T10:12:44;98783.22;;;12.49;40.25
19596;BME280;9945;46.010;8.946;2022-12-18T10:15:18;98781.19;;;12.08;41.02
19596;BME280;9945;46.010;8.946;2022-12-18T10:17:54;98777.34;;;11.44;42.75
19596;BME280;9945;46.010;8.946;2022-12-18T10:20:29;98782.09;;;11.39;43.34
19596;BME280;9945;46.010;8.946;2022-12-18T10:23:02;98784.63;;;11.87;41.52
19596;BME280;9945;46.010;8.946;2022-12-18T10:25:35;98780.72;;;13.66;38.97
19596;BME280;9945;46.010;8.946;2022-12-18T10:28:10;98800.84;;;17.94;32.41
19596;BME280;9945;46.010;8.946;2022-12-18T10:30:42;98794.91;;;23.33;24.76
19596;BME280;9945;46.010;8.946;2022-12-18T10:33:11;98798.22;;;26.10;21.81
19596;BME280;9945;46.010;8.946;2022-12-18T10:35:41;98799.59;;;27.61;19.77
19596;BME280;9945;46.010;8.946;2022-12-18T10:38:21;98809.03;;;27.32;19.84
19596;BME280;9945;46.010;8.946;2022-12-18T10:40:51;98809.53;;;27.16;20.06
19596;BME280;9945;46.010;8.946;2022-12-18T10:43:24;98776.72;;;26.29;20.45
19596;BME280;9945;46.010;8.946;2022-12-18T10:46:11;98779.13;;;26.57;19.83
19596;BME280;9945;46.010;8.946;2022-12-18T10:48:48;98776.66;;;26.56;20.34
19596;BME280;9945;46.010;8.946;2022-12-18T10:51:20;98787.69;;;25.88;20.91
19596;BME280;9945;46.010;8.946;2022-12-18T10:53:52;98783.63;;;25.18;20.28
19596;BME280;9945;46.010;8.946;2022-12-18T10:56:21;98779.94;;;23.54;21.87
19596;BME280;9945;46.010;8.946;2022-12-18T10:58:56;98766.56;;;24.31;22.03
19596;BME280;9945;46.010;8.946;2022-12-18T11:01:25;98771.75;;;24.39;21.82
19596;BME280;9945;46.010;8.946;2022-12-18T11:04:05;98775.41;;;23.82;23.61
19596;BME280;9945;46.010;8.946;2022-12-18T11:06:34;98767.88;;;22.56;24.87
19596;BME280;9945;46.010;8.946;2022-12-18T11:09:20;98780.75;;;23.39;24.01
19596;BME280;9945;46.010;8.946;2022-12-18T11:11:49;98777.50;;;23.59;24.10
19596;BME280;9945;46.010;8.946;2022-12-18T11:14:21;98778.81;;;24.53;22.97
19596;BME280;9945;46.010;8.946;2022-12-18T11:16:51;98783.91;;;23.86;23.82
19596;BME280;9945;46.010;8.946;2022-12-18T11:19:34;98778.31;;;23.38;24.29
19596;BME280;9945;46.010;8.946;2022-12-18T11:22:17;98797.72;;;22.60;25.01
19596;BME280;9945;46.010;8.946;2022-12-18T11:24:52;98789.38;;;22.99;24.39
19596;BME280;9945;46.010;8.946;2022-12-18T11:27:20;98782.44;;;23.83;23.91
19596;BME280;9945;46.010;8.946;2022-12-18T11:29:49;98778.41;;;25.65;21.46
19596;BME280;9945;46.010;8.946;2022-12-18T11:32:34;98768.00;;;26.47;20.86
19596;BME280;9945;46.010;8.946;2022-12-18T11:35:13;98767.03;;;26.09;21.52
19596;BME280;9945;46.010;8.946;2022-12-18T11:37:44;98765.41;;;25.75;22.43
19596;BME280;9945;46.010;8.946;2022-12-18T11:40:16;98770.34;;;24.91;22.76
19596;BME280;9945;46.010;8.946;2022-12-18T11:42:48;98769.31;;;24.50;23.11
19596;BME280;9945;46.010;8.946;2022-12-18T11:45:26;98780.69;;;24.94;23.33
19596;BME280;9945;46.010;8.946;2022-12-18T11:47:59;98771.50;;;24.06;23.51
19596;BME280;9945;46.010;8.946;2022-12-18T11:50:34;98768.63;;;24.07;23.41
19596;BME280;9945;46.010;8.946;2022-12-18T11:53:04;98762.38;;;24.56;23.48
19596;BME280;9945;46.010;8.946;2022-12-18T11:55:40;98758.28;;;23.98;23.07
19596;BME280;9945;46.010;8.946;2022-12-18T11:58:15;98747.03;;;23.81;23.57
19596;BME280;9945;46.010;8.946;2022-12-18T12:00:49;98741.13;;;23.22;24.16
19596;BME280;9945;46.010;8.946;2022-12-18T12:03:27;98746.03;;;23.61;23.57
19596;BME280;9945;46.010;8.946;2022-12-18T12:06:08;98733.91;;;25.03;22.65
19596;BME280;9945;46.010;8.946;2022-12-18T12:08:47;98737.25;;;25.38;21.57
19596;BME280;9945;46.010;8.946;2022-12-18T12:11:20;98733.16;;;25.88;21.61
19596;BME280;9945;46.010;8.946;2022-12-18T12:14:07;98722.63;;;25.53;21.74
19596;BME280;9945;46.010;8.946;2022-12-18T12:16:41;98726.56;;;25.51;21.45
19596;BME280;9945;46.010;8.946;2022-12-18T12:19:26;98733.81;;;24.83;22.54
19596;BME280;9945;46.010;8.946;2022-12-18T12:22:02;98720.84;;;24.32;22.51
19596;BME280;9945;46.010;8.946;2022-12-18T12:24:42;98719.84;;;24.94;22.79
19596;BME280;9945;46.010;8.946;2022-12-18T12:27:18;98720.28;;;24.91;23.01
19596;BME280;9945;46.010;8.946;2022-12-18T12:29:56;98713.44;;;23.08;24.31
19596;BME280;9945;46.010;8.946;2022-12-18T12:32:37;98717.75;;;23.73;23.52
19596;BME280;9945;46.010;8.946;2022-12-18T12:35:18;98720.25;;;21.86;26.06
19596;BME280;9945;46.010;8.946;2022-12-18T12:37:55;98716.03;;;21.92;24.94
19596;BME280;9945;46.010;8.946;2022-12-18T12:40:28;98711.47;;;20.72;26.70
19596;BME280;9945;46.010;8.946;2022-12-18T12:42:59;98715.63;;;19.72;28.87
19596;BME280;9945;46.010;8.946;2022-12-18T12:45:44;98718.19;;;20.13;28.36
19596;BME280;9945;46.010;8.946;2022-12-18T12:48:17;98712.50;;;19.52;28.51
19596;BME280;9945;46.010;8.946;2022-12-18T12:50:48;98712.47;;;19.28;29.61
19596;BME280;9945;46.010;8.946;2022-12-18T12:53:23;98699.19;;;19.60;28.92
19596;BME280;9945;46.010;8.946;2022-12-18T12:55:51;98700.69;;;19.71;28.63
19596;BME280;9945;46.010;8.946;2022-12-18T12:58:28;98692.69;;;19.79;29.18
19596;BME280;9945;46.010;8.946;2022-12-18T13:01:12;98699.69;;;19.64;28.81
19596;BME280;9945;46.010;8.946;2022-12-18T13:03:50;98701.28;;;19.97;28.37
19596;BME280;9945;46.010;8.946;2022-12-18T13:06:32;98701.16;;;19.75;28.91
19596;BME280;9945;46.010;8.946;2022-12-18T13:09:03;98704.00;;;19.81;29.67
19596;BME280;9945;46.010;8.946;2022-12-18T13:11:34;98705.16;;;19.46;29.55
19596;BME280;9945;46.010;8.946;2022-12-18T13:14:30;98702.19;;;19.49;28.33
19596;BME280;9945;46.010;8.946;2022-12-18T13:17:27;98697.53;;;19.27;29.74
19596;BME280;9945;46.010;8.946;2022-12-18T13:20:10;98699.50;;;19.41;28.88
19596;BME280;9945;46.010;8.946;2022-12-18T13:22:42;98689.09;;;19.48;29.42
19596;BME280;9945;46.010;8.946;2022-12-18T13:25:28;98695.88;;;19.58;29.49
19596;BME280;9945;46.010;8.946;2022-12-18T13:28:11;98682.66;;;20.06;29.50
19596;BME280;9945;46.010;8.946;2022-12-18T13:30:48;98681.44;;;19.20;30.47
19596;BME280;9945;46.010;8.946;2022-12-18T13:33:43;98668.47;;;20.52;28.03
19596;BME280;9945;46.010;8.946;2022-12-18T13:36:16;98674.09;;;19.06;31.95
19596;BME280;9945;46.010;8.946;2022-12-18T13:39:10;98667.75;;;20.35;30.11